Time;durP1;ratioP1;P1;durP2;ratioP2;P2;SDS_P1;SDS_P2;PMS_P1;PMS_P2;Temp;Humidity;BMP_temperature;BMP_pressure;BME280_temperature;BME280_humidity;BME280_pressure;Samples;Min_cycle;Max_cycle;Signal;HPM_P1;HPM_P2
2022/02/02 00:00:15;;;;;;;2.97;2.23;;;5.70;99.90;;;;;;4903004;29;20028;-86
2022/02/02 00:02:50;;;;;;;5.10;1.93;;;5.70;99.90;;;;;;4902821;29;20048;-87
2022/02/02 00:07:55;;;;;;;5.33;2.10;;;5.70;99.90;;;;;;4920180;29;20047;-88
2022/02/02 00:13:03;;;;;;;5.23;1.97;;;5.70;99.90;;;;;;4919791;29;20453;-88
2022/02/02 00:16:01;;;;;;;4.10;2.37;;;5.80;99.90;;;;;;4919425;29;20455;-87
2022/02/02 00:21:24;;;;;;;2.57;2.03;;;5.70;99.90;;;;;;4918541;29;20043;-86
2022/02/02 00:23:56;;;;;;;4.57;2.23;;;5.80;99.90;;;;;;4919690;29;20465;-87
2022/02/02 00:26:28;;;;;;;4.85;2.28;;;5.80;99.90;;;;;;4918014;29;20044;-87
2022/02/02 00:29:00;;;;;;;7.23;2.73;;;5.80;99.90;;;;;;4918370;29;20039;-86
2022/02/02 00:31:32;;;;;;;4.15;2.53;;;5.90;99.90;;;;;;4914173;29;20024;-87
2022/02/02 00:34:02;;;;;;;6.93;2.80;;;5.90;99.90;;;;;;4902756;29;20036;-87
2022/02/02 00:36:36;;;;;;;3.63;2.57;;;5.90;99.90;;;;;;4902727;29;20040;-85
2022/02/02 00:39:03;;;;;;;6.37;2.93;;;6.00;99.90;;;;;;4906187;29;20125;-86
2022/02/02 00:41:28;;;;;;;5.33;2.40;;;6.00;99.90;;;;;;4902770;29;20531;-86
2022/02/02 00:43:59;;;;;;;5.53;2.63;;;6.00;99.90;;;;;;4902726;29;20028;-86
2022/02/02 00:46:27;;;;;;;5.83;2.70;;;6.10;99.90;;;;;;4902139;29;20581;-86
2022/02/02 00:48:59;;;;;;;4.57;2.33;;;6.10;99.90;;;;;;4900330;29;20079;-81
2022/02/02 00:51:33;;;;;;;6.03;2.30;;;6.10;99.90;;;;;;4901276;29;20024;-85
2022/02/02 00:53:59;;;;;;;5.27;2.50;;;6.20;99.90;;;;;;4919041;29;20030;-86
2022/02/02 00:56:24;;;;;;;5.93;2.53;;;6.30;99.90;;;;;;4919562;29;20140;-85
2022/02/02 00:58:50;;;;;;;5.37;2.60;;;6.30;99.90;;;;;;4921877;29;20462;-85
2022/02/02 01:01:15;;;;;;;5.93;2.97;;;6.30;99.90;;;;;;4917770;29;20070;-85
2022/02/02 01:03:41;;;;;;;5.17;3.00;;;6.40;99.90;;;;;;4917987;29;20091;-85
2022/02/02 01:06:09;;;;;;;9.57;3.73;;;6.30;99.90;;;;;;4918268;29;20040;-82
2022/02/02 01:11:43;;;;;;;8.73;3.60;;;6.30;99.90;;;;;;4918778;29;20129;-85
2022/02/02 01:19:39;;;;;;;8.80;3.30;;;6.50;99.90;;;;;;4918132;29;20055;-85
2022/02/02 01:27:49;;;;;;;6.47;2.43;;;6.70;99.90;;;;;;4917807;29;20054;-86
2022/02/02 01:30:12;;;;;;;6.03;3.07;;;6.70;99.90;;;;;;4917341;29;20028;-86
2022/02/02 01:32:39;;;;;;;6.53;2.63;;;6.80;99.90;;;;;;4917216;29;20028;-87
2022/02/02 01:35:12;;;;;;;6.27;2.60;;;6.90;99.90;;;;;;4916892;29;20043;-87
2022/02/02 01:37:38;;;;;;;7.50;2.60;;;6.90;99.90;;;;;;4917272;29;20433;-87
2022/02/02 01:40:11;;;;;;;6.00;2.73;;;6.90;99.90;;;;;;4916767;29;20028;-86
2022/02/02 01:42:45;;;;;;;7.57;3.33;;;6.90;99.90;;;;;;4917416;29;20029;-87
2022/02/02 01:45:18;;;;;;;7.47;3.10;;;6.90;99.90;;;;;;4916800;29;20066;-83
2022/02/02 01:53:17;;;;;;;9.90;3.57;;;6.90;99.90;;;;;;4918161;29;20024;-85
2022/02/02 01:55:42;;;;;;;10.20;3.60;;;6.90;99.90;;;;;;4914128;29;20116;-83
2022/02/02 02:00:36;;;;;;;6.80;3.50;;;6.90;99.90;;;;;;4898943;29;20223;-88
2022/02/02 02:03:03;;;;;;;10.70;3.83;;;6.90;99.90;;;;;;4893198;29;20060;-82
2022/02/02 02:05:28;;;;;;;11.27;3.80;;;6.90;99.90;;;;;;4881625;29;20249;-82
2022/02/02 02:07:54;;;;;;;6.43;4.10;;;6.90;99.90;;;;;;4881829;29;20545;-83
2022/02/02 02:10:22;;;;;;;10.53;3.50;;;6.90;99.90;;;;;;4881724;29;20489;-82
2022/02/02 02:12:53;;;;;;;10.53;3.63;;;6.90;99.90;;;;;;4882573;29;20032;-83
2022/02/02 02:15:21;;;;;;;9.13;3.95;;;6.90;99.90;;;;;;4882114;29;20165;-83
2022/02/02 02:17:47;;;;;;;8.13;3.77;;;6.80;99.90;;;;;;4882391;29;20036;-83
2022/02/02 02:20:13;;;;;;;5.80;3.30;;;6.80;99.90;;;;;;4882160;29;20039;-80
2022/02/02 02:22:41;;;;;;;7.67;3.30;;;6.90;99.90;;;;;;4882535;29;20028;-83
2022/02/02 02:25:07;;;;;;;14.73;4.00;;;6.90;99.90;;;;;;4898779;29;20027;-83
2022/02/02 02:27:33;;;;;;;10.57;4.10;;;6.90;99.90;;;;;;4897026;29;20029;-83
2022/02/02 02:40:28;;;;;;;8.13;3.50;;;6.90;99.90;;;;;;4898777;29;20032;-83
2022/02/02 02:56:47;;;;;;;6.87;2.60;;;7.00;99.90;;;;;;4902601;29;20123;-84
2022/02/02 02:59:17;;;;;;;6.70;2.23;;;7.00;99.90;;;;;;4885509;29;20060;-79
2022/02/02 04:01:22;;;;;;;7.57;2.40;;;7.30;99.90;;;;;;4901137;29;20089;-84
2022/02/02 04:04:11;;;;;;;7.27;2.80;;;7.30;99.90;;;;;;4884822;29;20134;-84
2022/02/02 04:06:54;;;;;;;7.40;2.33;;;7.30;99.90;;;;;;4883410;29;20059;-83
2022/02/02 04:09:19;;;;;;;10.73;2.73;;;7.40;99.90;;;;;;4884389;29;20458;-81
2022/02/02 04:11:54;;;;;;;4.93;2.27;;;7.40;99.90;;;;;;4885208;29;20071;-84
2022/02/02 04:55:25;;;;;;;5.93;1.70;;;7.60;99.90;;;;;;4900560;29;20039;-89
2022/02/02 05:01:27;;;;;;;9.57;1.73;;;7.60;99.90;;;;;;4899761;29;20028;-85
2022/02/02 05:06:21;;;;;;;5.47;1.70;;;7.70;99.90;;;;;;4900099;29;20043;-86
2022/02/02 05:23:14;;;;;;;5.67;1.67;;;7.70;99.90;;;;;;4899934;29;20047;-84
2022/02/02 05:44:23;;;;;;;9.53;1.80;;;7.80;99.90;;;;;;4918613;29;20436;-83
2022/02/02 05:52:18;;;;;;;10.60;1.97;;;7.80;99.90;;;;;;4918023;29;20035;-83
2022/02/02 05:54:44;;;;;;;6.67;1.73;;;7.80;99.90;;;;;;4900512;29;20114;-83
2022/02/02 05:57:12;;;;;;;9.60;2.13;;;7.80;99.90;;;;;;4885030;29;20147;-83
2022/02/02 05:59:41;;;;;;;8.02;1.95;;;7.80;99.90;;;;;;4898280;29;20071;-82
2022/02/02 06:02:13;;;;;;;7.68;1.70;;;7.80;99.90;;;;;;4882590;29;20032;-83
2022/02/02 06:04:47;;;;;;;5.97;1.85;;;7.80;99.90;;;;;;4882004;29;20080;-83
2022/02/02 06:07:14;;;;;;;8.38;2.17;;;7.80;99.90;;;;;;4886505;29;20061;-88
2022/02/02 06:09:44;;;;;;;10.55;2.08;;;7.80;99.90;;;;;;4882345;29;20033;-87
2022/02/02 06:12:10;;;;;;;10.35;2.30;;;7.80;99.90;;;;;;4882551;29;20127;-88
2022/02/02 06:14:39;;;;;;;12.33;2.30;;;7.80;99.90;;;;;;4881867;29;20029;-87
2022/02/02 06:17:07;;;;;;;8.60;1.90;;;7.80;99.90;;;;;;4897744;29;20043;-85
2022/02/02 06:19:33;;;;;;;11.00;2.07;;;7.90;99.90;;;;;;4881669;29;20124;-85
2022/02/02 06:22:18;;;;;;;8.43;1.88;;;7.90;99.90;;;;;;4881793;29;20449;-85
2022/02/02 06:24:52;;;;;;;8.05;1.70;;;7.90;99.90;;;;;;4881592;29;20056;-85
2022/02/02 06:27:26;;;;;;;9.95;1.80;;;7.90;99.90;;;;;;4883904;29;20032;-83
2022/02/02 06:30:12;;;;;;;8.68;1.92;;;7.90;99.90;;;;;;4893871;29;20036;-89
2022/02/02 06:32:52;;;;;;;9.35;1.60;;;7.90;99.90;;;;;;4899999;29;20040;-91
2022/02/02 06:35:19;;;;;;;8.60;1.92;;;8.00;99.90;;;;;;4891054;29;20107;-92
2022/02/02 06:37:46;;;;;;;7.07;1.75;;;7.90;99.90;;;;;;4899921;29;20067;-84
2022/02/02 06:40:13;;;;;;;8.38;1.60;;;7.90;99.90;;;;;;4900794;29;20032;-83
2022/02/02 06:42:40;;;;;;;7.50;1.90;;;7.90;99.90;;;;;;4900436;29;20099;-83
2022/02/02 06:45:08;;;;;;;11.13;1.83;;;7.90;99.90;;;;;;4900523;29;20537;-85
2022/02/02 06:47:35;;;;;;;7.57;2.05;;;7.90;99.90;;;;;;4900412;29;20032;-84
2022/02/02 06:50:09;;;;;;;10.10;1.77;;;7.90;99.90;;;;;;4901007;29;20029;-83
2022/02/02 06:53:19;;;;;;;12.70;2.42;;;7.90;99.90;;;;;;4900441;29;20028;-83
2022/02/02 06:56:05;;;;;;;6.88;1.83;;;7.90;99.90;;;;;;4900247;29;20064;-83
2022/02/02 06:58:53;;;;;;;10.25;2.00;;;7.90;99.90;;;;;;4900200;29;20032;-83
2022/02/02 07:04:17;;;;;;;8.63;2.72;;;7.90;99.90;;;;;;4917466;29;20048;-83
2022/02/02 07:07:05;;;;;;;9.93;2.42;;;7.90;99.90;;;;;;4900122;29;20048;-83
2022/02/02 07:12:28;;;;;;;13.52;1.92;;;7.90;99.90;;;;;;4917282;29;20024;-83
2022/02/02 07:17:39;;;;;;;15.65;2.45;;;8.10;99.90;;;;;;4917241;29;20036;-83
2022/02/02 07:20:17;;;;;;;14.68;3.10;;;8.10;99.90;;;;;;4900503;29;20036;-83
2022/02/02 07:23:15;;;;;;;10.55;2.15;;;8.10;99.90;;;;;;4899947;29;20054;-83
2022/02/02 07:33:42;;;;;;;9.43;3.47;;;8.10;99.90;;;;;;4915973;29;20536;-87
2022/02/02 07:36:16;;;;;;;15.07;3.08;;;8.10;99.90;;;;;;4903947;29;20028;-86
2022/02/02 07:38:58;;;;;;;9.10;2.70;;;8.10;99.90;;;;;;4919927;29;20076;-86
2022/02/02 07:41:35;;;;;;;10.57;2.33;;;8.10;99.90;;;;;;4920403;29;20028;-87
2022/02/02 07:44:09;;;;;;;11.43;2.42;;;8.10;99.90;;;;;;4903604;29;20032;-87
2022/02/02 07:46:38;;;;;;;11.38;2.13;;;8.10;99.90;;;;;;4903231;29;20127;-86
2022/02/02 07:49:08;;;;;;;13.00;2.28;;;8.10;99.90;;;;;;4903992;29;20032;-86
2022/02/02 07:51:36;;;;;;;9.68;2.55;;;8.10;99.90;;;;;;4902861;29;20487;-83
2022/02/02 07:54:04;;;;;;;12.77;2.90;;;8.10;99.90;;;;;;4903452;29;20370;-84
2022/02/02 07:56:40;;;;;;;12.45;2.10;;;8.10;99.90;;;;;;4903086;29;20043;-80
2022/02/02 07:59:18;;;;;;;12.95;2.38;;;8.10;99.90;;;;;;4903245;29;20028;-83
2022/02/02 08:01:46;;;;;;;12.73;2.33;;;8.10;99.90;;;;;;4903105;29;20099;-85
2022/02/02 08:04:13;;;;;;;8.50;2.22;;;8.20;99.90;;;;;;4903576;29;20036;-84
2022/02/02 08:06:42;;;;;;;9.63;2.20;;;8.10;99.90;;;;;;4919638;29;20032;-84
2022/02/02 08:09:11;;;;;;;11.18;2.42;;;8.10;99.90;;;;;;4903348;29;20123;-85
2022/02/02 08:11:38;;;;;;;13.27;2.33;;;8.20;99.90;;;;;;4919641;29;20032;-85
2022/02/02 08:14:04;;;;;;;13.18;2.50;;;8.20;99.90;;;;;;4903815;29;20028;-85
2022/02/02 08:16:31;;;;;;;8.50;2.08;;;8.20;99.90;;;;;;4922098;29;20048;-85
2022/02/02 08:18:57;;;;;;;8.23;1.80;;;8.20;99.90;;;;;;4902890;29;20516;-89
2022/02/02 08:21:23;;;;;;;9.35;1.90;;;8.30;99.90;;;;;;4903013;29;20032;-89
2022/02/02 08:23:51;;;;;;;11.00;1.73;;;8.30;99.90;;;;;;4919305;29;20030;-88
2022/02/02 08:26:17;;;;;;;13.43;2.17;;;8.30;99.90;;;;;;4918969;29;20557;-88
2022/02/02 08:28:44;;;;;;;9.93;2.17;;;8.30;99.90;;;;;;4902376;29;20056;-86
2022/02/02 08:31:11;;;;;;;9.23;2.20;;;8.30;99.90;;;;;;4919643;29;20028;-86
2022/02/02 08:33:44;;;;;;;13.65;2.33;;;8.30;99.90;;;;;;4902487;29;20028;-85
2022/02/02 08:36:13;;;;;;;12.52;2.42;;;8.30;99.90;;;;;;4919591;29;20032;-84
2022/02/02 08:39:07;;;;;;;10.65;2.33;;;8.30;99.90;;;;;;4917759;29;20139;-84
2022/02/02 08:41:38;;;;;;;10.85;2.40;;;8.30;99.90;;;;;;4902635;29;20034;-82
2022/02/02 08:44:09;;;;;;;8.32;2.53;;;8.30;99.90;;;;;;4918713;29;20032;-85
2022/02/02 08:46:42;;;;;;;11.32;1.85;;;8.40;99.90;;;;;;4902448;29;20095;-82
2022/02/02 08:49:11;;;;;;;12.55;2.33;;;8.40;99.90;;;;;;4902946;29;20119;-85
2022/02/02 08:51:43;;;;;;;8.82;2.58;;;8.40;99.90;;;;;;4902135;29;20064;-85
2022/02/02 08:54:25;;;;;;;12.88;2.15;;;8.40;99.90;;;;;;4902939;29;20037;-87
2022/02/02 09:00:03;;;;;;;13.55;2.30;;;8.50;99.90;;;;;;4916332;29;20028;-83
2022/02/02 09:02:32;;;;;;;15.07;2.47;;;8.50;99.90;;;;;;4897959;29;20036;-82
2022/02/02 09:07:42;;;;;;;10.95;2.25;;;8.60;99.90;;;;;;4918617;29;20067;-82
2022/02/02 09:10:14;;;;;;;11.75;2.17;;;8.60;99.90;;;;;;4901606;29;20485;-87
2022/02/02 09:23:30;;;;;;;12.27;2.75;;;8.60;99.90;;;;;;4899798;29;20112;-82
2022/02/02 09:34:06;;;;;;;10.05;2.00;;;8.80;99.90;;;;;;4918461;29;20047;-82
2022/02/02 09:36:36;;;;;;;14.95;2.55;;;8.90;99.90;;;;;;4901450;29;20067;-82
2022/02/02 09:39:10;;;;;;;12.82;2.70;;;8.90;99.90;;;;;;4901825;29;20048;-82
2022/02/02 09:41:50;;;;;;;8.90;2.28;;;9.00;99.90;;;;;;4889787;29;20029;-81
2022/02/02 09:44:21;;;;;;;7.82;3.00;;;9.00;99.90;;;;;;4883036;29;20032;-83
2022/02/02 09:49:26;;;;;;;12.48;3.10;;;9.00;99.90;;;;;;4898837;29;20043;-83
2022/02/02 09:52:02;;;;;;;13.55;2.72;;;9.00;99.90;;;;;;4896193;29;20032;-82
2022/02/02 09:54:36;;;;;;;13.85;2.75;;;9.10;99.90;;;;;;4901682;29;20122;-82
2022/02/02 09:57:31;;;;;;;10.77;2.20;;;9.10;99.90;;;;;;4917157;29;20180;-82
2022/02/02 10:00:38;;;;;;;9.02;2.30;;;9.10;99.90;;;;;;4911390;29;20028;-82
2022/02/02 10:03:20;;;;;;;17.40;2.70;;;9.20;99.90;;;;;;4916944;29;20040;-80
2022/02/02 10:06:09;;;;;;;6.88;2.00;;;9.20;99.90;;;;;;4900330;29;20051;-79
2022/02/02 10:08:55;;;;;;;10.23;2.63;;;9.20;99.90;;;;;;4900668;29;20036;-80
2022/02/02 10:11:49;;;;;;;10.52;2.30;;;9.30;99.90;;;;;;4891549;29;20390;-81
2022/02/02 10:14:30;;;;;;;10.45;2.33;;;9.30;99.90;;;;;;4899515;29;20033;-79
2022/02/02 10:16:56;;;;;;;13.32;2.25;;;9.40;99.90;;;;;;4898127;29;20047;-79
2022/02/02 10:19:24;;;;;;;7.43;1.88;;;9.40;99.90;;;;;;4898210;29;20092;-80
2022/02/02 10:21:49;;;;;;;13.18;2.08;;;9.40;99.90;;;;;;4881693;29;20025;-78
2022/02/02 10:24:16;;;;;;;15.55;2.17;;;9.40;99.90;;;;;;4881970;29;20079;-77
2022/02/02 10:26:46;;;;;;;14.32;2.33;;;9.40;99.90;;;;;;4881486;29;20044;-79
2022/02/02 10:29:15;;;;;;;12.68;2.97;;;9.40;99.90;;;;;;4886439;29;20039;-84
2022/02/02 10:31:47;;;;;;;15.68;2.80;;;9.40;99.90;;;;;;4901764;29;20024;-84
2022/02/02 10:34:19;;;;;;;10.10;2.10;;;9.50;99.90;;;;;;4901053;29;20040;-92
2022/02/02 10:36:45;;;;;;;;;;;9.50;99.90;;;;;;4900164;29;20146;-90
2022/02/02 10:39:19;;;;;;;12.68;2.15;;;9.60;99.90;;;;;;4900575;29;20376;-89
2022/02/02 10:41:53;;;;;;;13.38;2.90;;;9.60;99.90;;;;;;4918978;29;20036;-92
2022/02/02 10:44:24;;;;;;;12.35;2.42;;;9.60;99.90;;;;;;4917483;29;20052;-87
2022/02/02 10:46:58;;;;;;;7.40;2.87;;;9.60;99.90;;;;;;4914866;29;20039;-89
2022/02/02 10:49:38;;;;;;;15.98;2.22;;;9.60;99.90;;;;;;4921411;29;20122;-93
2022/02/02 10:52:11;;;;;;;11.85;2.35;;;9.70;99.90;;;;;;4910810;29;20488;-87
2022/02/02 10:58:00;;;;;;;12.52;2.88;;;9.70;99.90;;;;;;4914338;29;20039;-91
2022/02/02 11:00:24;;;;;;;9.57;2.40;;;9.70;99.90;;;;;;4911064;29;20143;-90
2022/02/02 11:08:19;;;;;;;14.07;2.40;;;9.80;99.90;;;;;;4917177;29;20096;-89
2022/02/02 11:10:48;;;;;;;12.35;2.03;;;9.90;99.90;;;;;;4911248;29;20037;-79
2022/02/02 11:13:16;;;;;;;10.38;2.47;;;10.00;99.90;;;;;;4906438;29;20075;-85
2022/02/02 11:15:55;;;;;;;17.67;2.67;;;10.00;99.90;;;;;;4904238;29;20524;-81
2022/02/02 11:18:41;;;;;;;9.43;1.90;;;10.00;99.90;;;;;;4920849;29;20043;-88
2022/02/02 11:21:08;;;;;;;17.33;3.15;;;10.00;99.90;;;;;;4903322;29;20052;-89
2022/02/02 11:23:45;;;;;;;17.13;3.03;;;10.10;99.90;;;;;;4903637;29;20028;-86
2022/02/02 11:26:11;;;;;;;12.80;2.40;;;10.20;99.90;;;;;;4903436;29;20028;-88
2022/02/02 11:28:37;;;;;;;22.40;4.15;;;10.30;99.90;;;;;;4900889;29;20028;-88
2022/02/02 11:31:18;;;;;;;13.40;2.75;;;10.30;99.90;;;;;;4903043;29;20040;-87
2022/02/02 11:33:51;;;;;;;14.20;3.42;;;10.30;99.90;;;;;;4920149;29;20024;-83
2022/02/02 11:36:30;;;;;;;9.98;3.22;;;10.40;99.90;;;;;;4903960;29;20057;-86
2022/02/02 11:38:57;;;;;;;12.43;3.10;;;10.40;99.90;;;;;;4899811;29;20045;-85
2022/02/02 11:41:43;;;;;;;9.85;2.47;;;10.50;99.90;;;;;;4901713;29;20020;-85
2022/02/02 11:44:27;;;;;;;14.70;5.50;;;10.40;99.90;;;;;;4900428;29;20056;-87
2022/02/02 11:49:48;;;;;;;16.52;2.67;;;10.40;99.90;;;;;;4900694;29;20036;-82
2022/02/02 11:52:45;;;;;;;14.13;2.47;;;10.40;99.90;;;;;;4899955;29;20025;-86
2022/02/02 11:55:10;;;;;;;11.23;2.15;;;10.50;99.90;;;;;;4899730;29;20108;-84
2022/02/02 11:58:01;;;;;;;11.93;2.13;;;10.40;99.90;;;;;;4901089;29;20185;-86
2022/02/02 12:00:36;;;;;;;12.15;2.67;;;10.50;99.90;;;;;;4900124;29;20060;-87
2022/02/02 12:03:33;;;;;;;10.32;2.10;;;10.50;99.90;;;;;;4900300;29;20123;-86
2022/02/02 12:06:25;;;;;;;11.45;2.60;;;10.40;99.90;;;;;;4899247;29;20092;-86
2022/02/02 12:47:32;;;;;;;9.50;2.35;;;10.90;99.90;;;;;;4919368;29;20040;-84
2022/02/02 13:03:13;;;;;;;12.05;1.98;;;10.10;99.90;;;;;;4919041;29;20031;-87
2022/02/02 13:05:41;;;;;;;9.95;2.10;;;10.10;99.90;;;;;;4902299;29;20088;-88
2022/02/02 13:08:08;;;;;;;12.88;2.20;;;10.00;99.90;;;;;;4901140;29;20032;-86
2022/02/02 13:10:36;;;;;;;13.15;2.35;;;10.00;99.90;;;;;;4901735;29;20035;-87
2022/02/02 13:13:18;;;;;;;10.80;2.20;;;10.00;99.90;;;;;;4901378;29;20032;-87
2022/02/02 13:15:51;;;;;;;11.73;2.10;;;10.00;99.90;;;;;;4901858;29;20036;-87
2022/02/02 13:18:25;;;;;;;12.90;2.22;;;10.00;99.90;;;;;;4901479;29;20028;-88
2022/02/02 13:26:41;;;;;;;8.48;1.98;;;10.10;99.90;;;;;;4918484;29;20489;-87
2022/02/02 13:29:18;;;;;;;12.90;2.03;;;10.10;99.90;;;;;;4901276;29;20024;-88
2022/02/02 13:37:08;;;;;;;12.50;1.73;;;10.20;99.90;;;;;;4914865;29;20084;-81
2022/02/02 13:42:45;;;;;;;9.88;1.67;;;10.20;99.90;;;;;;4917592;29;20036;-88
2022/02/02 13:59:17;;;;;;;8.35;1.50;;;10.10;99.90;;;;;;4917888;29;20040;-86
2022/02/02 14:06:55;;;;;;;4.13;1.55;;;10.10;99.90;;;;;;4907337;29;20064;-88
2022/02/02 14:33:25;;;;;;;2.10;0.90;;;9.90;99.90;;;;;;4917559;29;20147;-86
2022/02/02 14:35:59;;;;;;;3.95;0.95;;;9.90;99.90;;;;;;4917250;29;20047;-79
2022/02/02 14:38:26;;;;;;;1.85;0.90;;;9.80;99.90;;;;;;4900334;29;20059;-88
2022/02/02 14:43:25;;;;;;;2.75;1.13;;;9.90;99.90;;;;;;4918910;29;20111;-87
2022/02/02 14:45:55;;;;;;;4.00;1.13;;;9.90;99.90;;;;;;4921114;29;20029;-88
2022/02/02 14:48:35;;;;;;;2.72;1.00;;;9.90;99.90;;;;;;4904858;29;20032;-89
2022/02/02 14:53:45;;;;;;;6.22;1.65;;;9.90;99.90;;;;;;4921609;29;20473;-87
2022/02/02 15:30:46;;;;;;;3.00;0.80;;;9.90;99.90;;;;;;4915671;29;20036;-91
2022/02/02 15:33:18;;;;;;;6.10;0.98;;;9.90;99.90;;;;;;4903278;29;20039;-91
2022/02/02 15:35:45;;;;;;;3.88;0.95;;;9.90;99.90;;;;;;4919695;29;20469;-89
2022/02/02 15:38:26;;;;;;;2.88;1.10;;;9.90;99.90;;;;;;4903290;29;20103;-93
2022/02/02 15:41:01;;;;;;;6.32;2.58;;;9.90;99.90;;;;;;4907069;29;20034;-83
2022/02/02 16:00:04;;;;;;;2.47;0.85;;;9.70;99.90;;;;;;4919759;29;20043;-87
2022/02/02 16:02:29;;;;;;;3.03;0.77;;;9.70;99.90;;;;;;4920066;29;20485;-84
2022/02/02 16:04:55;;;;;;;3.65;0.70;;;9.70;99.90;;;;;;4902887;29;20028;-85
2022/02/02 16:07:26;;;;;;;2.53;0.93;;;9.70;99.90;;;;;;4919911;29;20059;-83
2022/02/02 16:09:55;;;;;;;4.07;1.00;;;9.70;99.90;;;;;;4903245;29;20039;-86
2022/02/02 16:12:26;;;;;;;4.70;1.30;;;9.70;99.90;;;;;;4919650;29;20027;-83
2022/02/02 16:15:14;;;;;;;3.53;1.17;;;9.70;99.90;;;;;;4901085;29;20034;-83
2022/02/02 16:38:50;;;;;;;43.85;15.00;;;9.50;99.90;;;;;;4907002;29;20076;-84
2022/02/02 16:43:07;;;;;;;15.50;5.15;;;9.50;99.90;;;;;;4918481;29;20055;-88
2022/02/02 16:44:01;;;;;;;14.30;5.80;;;9.70;99.90;;;;;;4909384;29;20035;-83
2022/02/02 16:46:26;;;;;;;10.60;3.97;;;9.80;99.90;;;;;;4895847;29;20040;-80
2022/02/02 16:48:52;;;;;;;4.55;2.42;;;9.80;99.90;;;;;;4901582;29;20493;-79
2022/02/02 16:51:18;;;;;;;8.05;2.05;;;9.80;99.90;;;;;;4918938;29;20075;-84
2022/02/02 16:53:48;;;;;;;2.90;1.40;;;9.90;99.90;;;;;;4901686;29;20039;-80
2022/02/02 16:56:29;;;;;;;4.57;1.63;;;9.80;99.90;;;;;;4917854;29;20031;-79
2022/02/02 17:31:39;;;;;;;6.57;2.05;;;9.80;99.90;;;;;;4918281;29;20523;-77
2022/02/02 17:34:30;;;;;;;6.68;2.28;;;9.70;99.90;;;;;;4911954;29;20024;-84
2022/02/02 17:37:43;;;;;;;4.88;1.92;;;9.80;99.90;;;;;;4916943;29;20505;-81
2022/02/02 17:40:07;;;;;;;3.80;1.77;;;9.70;99.90;;;;;;4916890;29;20048;-89
2022/02/02 18:20:25;;;;;;;8.98;3.22;;;9.20;99.90;;;;;;4917857;29;20078;-82
2022/02/02 18:23:00;;;;;;;7.90;3.50;;;9.20;99.90;;;;;;4901155;29;20031;-86
2022/02/02 18:28:29;;;;;;;7.13;3.17;;;9.20;99.90;;;;;;4916133;29;20063;-82
2022/02/02 18:31:12;;;;;;;6.88;3.42;;;9.10;99.90;;;;;;4902011;29;20119;-82
2022/02/02 18:33:51;;;;;;;8.70;3.70;;;9.10;99.90;;;;;;4902712;29;20032;-87
2022/02/02 18:36:36;;;;;;;7.15;3.15;;;9.20;99.90;;;;;;4901412;29;20484;-83
2022/02/02 18:47:20;;;;;;;6.78;3.20;;;9.20;99.90;;;;;;4919272;29;20032;-88
2022/02/02 18:55:15;;;;;;;5.63;3.35;;;9.20;99.90;;;;;;4924261;29;20137;-91
2022/02/02 19:03:36;;;;;;;7.93;3.40;;;9.20;99.90;;;;;;4928107;29;20028;-90
2022/02/02 19:05:54;;;;;;;5.85;3.40;;;9.20;99.90;;;;;;4904462;29;20032;-90
2022/02/02 20:03:15;;;;;;;7.50;4.68;;;9.10;99.90;;;;;;4909664;29;20548;-81
2022/02/02 20:05:42;;;;;;;8.70;4.57;;;9.10;99.90;;;;;;4909628;29;20025;-84
2022/02/02 20:10:43;;;;;;;6.68;4.55;;;9.10;99.90;;;;;;4912864;29;20033;-82
2022/02/02 20:13:09;;;;;;;7.57;5.07;;;9.10;99.90;;;;;;4902464;29;20079;-81
2022/02/02 20:15:39;;;;;;;10.15;5.13;;;9.10;99.90;;;;;;4900577;29;20099;-82
2022/02/02 20:18:07;;;;;;;8.95;4.93;;;9.10;99.90;;;;;;4902263;29;20478;-79
2022/02/02 20:20:37;;;;;;;9.18;4.85;;;9.10;99.90;;;;;;4901514;29;20068;-82
2022/02/02 20:23:06;;;;;;;10.18;5.15;;;9.10;99.90;;;;;;4893654;29;20040;-84
2022/02/02 20:25:33;;;;;;;9.88;4.95;;;9.10;99.90;;;;;;4899495;29;20028;-86
2022/02/02 20:28:16;;;;;;;8.90;5.00;;;9.10;99.90;;;;;;4902610;29;20179;-82
2022/02/02 20:30:43;;;;;;;11.32;5.88;;;9.00;99.90;;;;;;4900156;29;20035;-85
2022/02/02 20:33:09;;;;;;;9.48;5.50;;;9.00;99.90;;;;;;4904124;29;20091;-83
2022/02/02 20:35:35;;;;;;;8.90;5.70;;;9.10;99.90;;;;;;4903961;29;20107;-79
2022/02/02 20:38:01;;;;;;;10.43;5.95;;;9.10;99.90;;;;;;4909326;29;20450;-78
2022/02/02 20:40:27;;;;;;;9.85;5.70;;;9.10;99.90;;;;;;4913037;29;20112;-79
2022/02/02 20:43:04;;;;;;;12.73;5.93;;;9.10;99.90;;;;;;4904989;29;20497;-82
2022/02/02 20:45:57;;;;;;;13.18;6.15;;;9.10;99.90;;;;;;4902000;29;20469;-80
2022/02/02 21:05:25;;;;;;;11.13;6.82;;;9.10;99.90;;;;;;4917202;29;20071;-80
2022/02/02 21:15:33;;;;;;;11.85;6.43;;;9.10;99.90;;;;;;4884457;29;20598;-81
2022/02/02 21:18:34;;;;;;;13.45;6.95;;;9.10;99.90;;;;;;4896796;29;20036;-81
2022/02/02 21:20:58;;;;;;;11.98;6.60;;;9.10;99.90;;;;;;4896548;29;20055;-79
2022/02/02 21:28:32;;;;;;;9.85;5.85;;;9.10;99.90;;;;;;4895988;29;20044;-78
2022/02/02 21:30:59;;;;;;;13.65;6.63;;;9.10;99.90;;;;;;4895922;29;20072;-79
2022/02/02 21:33:25;;;;;;;9.48;6.05;;;9.10;99.90;;;;;;4896963;29;20017;-79
2022/02/02 21:35:51;;;;;;;11.02;6.03;;;9.10;99.90;;;;;;4896937;29;20139;-78
2022/02/02 21:38:26;;;;;;;12.93;5.85;;;9.00;99.90;;;;;;4895837;29;20131;-79
2022/02/02 21:40:55;;;;;;;9.88;6.05;;;9.00;99.90;;;;;;4896692;29;20033;-80
2022/02/02 21:43:22;;;;;;;10.27;6.18;;;9.00;99.90;;;;;;4905192;29;20477;-81
2022/02/02 21:45:48;;;;;;;9.48;5.97;;;9.00;99.90;;;;;;4900712;29;20024;-79
2022/02/02 21:48:16;;;;;;;10.93;6.32;;;9.10;99.90;;;;;;4900706;29;20040;-80
2022/02/02 21:50:57;;;;;;;10.80;5.78;;;9.10;99.90;;;;;;4900189;29;20083;-80
2022/02/02 21:53:23;;;;;;;8.90;6.10;;;9.00;99.90;;;;;;4894551;29;20504;-78
2022/02/02 21:55:48;;;;;;;11.65;6.28;;;9.00;99.90;;;;;;4900550;29;20051;-80
2022/02/02 21:58:14;;;;;;;9.75;5.80;;;9.10;99.90;;;;;;4894382;29;20459;-78
2022/02/02 22:00:41;;;;;;;13.63;6.50;;;9.10;99.90;;;;;;4899981;29;20131;-79
2022/02/02 22:03:07;;;;;;;11.13;6.13;;;9.10;99.90;;;;;;4894981;29;20029;-79
2022/02/02 22:05:34;;;;;;;10.80;5.82;;;9.00;99.90;;;;;;4894690;29;20044;-78
2022/02/02 22:08:00;;;;;;;11.00;6.25;;;9.00;99.90;;;;;;4891745;29;20043;-77
2022/02/02 22:10:26;;;;;;;10.80;6.50;;;9.00;99.90;;;;;;4891925;29;20029;-78
2022/02/02 22:12:52;;;;;;;8.65;5.55;;;9.00;99.90;;;;;;4891948;29;20381;-79
2022/02/02 22:15:24;;;;;;;9.32;5.30;;;9.00;99.90;;;;;;4907297;29;20446;-78
2022/02/02 22:17:50;;;;;;;11.05;6.25;;;9.10;99.90;;;;;;4898942;29;20036;-77
2022/02/02 22:20:17;;;;;;;11.73;6.13;;;9.10;99.90;;;;;;4890955;29;20058;-79
2022/02/02 22:22:44;;;;;;;9.98;6.10;;;9.10;99.90;;;;;;4908758;29;20028;-79
2022/02/02 22:25:10;;;;;;;10.63;6.03;;;9.00;99.90;;;;;;4889490;29;20027;-78
2022/02/02 22:27:36;;;;;;;11.52;5.93;;;9.00;99.90;;;;;;4891987;29;20036;-78
2022/02/02 22:30:04;;;;;;;10.50;5.60;;;9.10;99.90;;;;;;4896479;29;20024;-78
2022/02/02 22:32:30;;;;;;;9.45;5.70;;;9.00;99.90;;;;;;4897092;29;20032;-77
2022/02/02 22:34:56;;;;;;;11.32;5.80;;;9.10;99.90;;;;;;4895915;29;20080;-79
2022/02/02 22:37:22;;;;;;;10.85;6.25;;;9.00;99.90;;;;;;4891289;29;20052;-78
2022/02/02 22:39:50;;;;;;;9.43;5.75;;;9.00;99.90;;;;;;4896719;29;20028;-79
2022/02/02 22:42:17;;;;;;;11.10;5.65;;;9.10;99.90;;;;;;4897030;29;20028;-78
2022/02/02 22:44:43;;;;;;;10.40;6.07;;;9.00;99.90;;;;;;4890716;29;20025;-79
2022/02/02 22:47:11;;;;;;;9.88;5.75;;;9.00;99.90;;;;;;4896739;29;20032;-79
2022/02/02 22:49:44;;;;;;;10.75;5.72;;;9.00;99.90;;;;;;4892511;29;20491;-80
2022/02/02 22:52:13;;;;;;;10.50;6.05;;;9.00;99.90;;;;;;4888248;29;20031;-79
2022/02/02 22:54:41;;;;;;;10.40;5.93;;;9.00;99.90;;;;;;4912921;29;20029;-78
2022/02/02 22:57:40;;;;;;;;;;;;;;;;;;;;;
2022/02/02 23:00:35;;;;;;;9.07;5.20;;;9.00;99.90;;;;;;4913371;29;20084;-79
2022/02/02 23:03:04;;;;;;;11.07;5.40;;;9.00;99.90;;;;;;4878652;29;20040;-78
2022/02/02 23:05:40;;;;;;;13.38;6.07;;;9.00;99.90;;;;;;4895101;29;20024;-78
2022/02/02 23:08:08;;;;;;;10.00;5.28;;;9.00;99.90;;;;;;4911465;29;20028;-78
2022/02/02 23:10:36;;;;;;;9.30;5.10;;;8.90;99.90;;;;;;4893763;29;20493;-78
2022/02/02 23:13:02;;;;;;;9.07;5.25;;;9.00;99.90;;;;;;4893034;29;20034;-77
2022/02/02 23:15:57;;;;;;;9.98;5.00;;;9.00;99.90;;;;;;4895348;29;20115;-79
2022/02/02 23:18:20;;;;;;;8.82;4.60;;;9.00;99.90;;;;;;4908059;29;20305;-78
2022/02/02 23:20:52;;;;;;;8.88;5.45;;;8.90;99.90;;;;;;4894731;29;20033;-78
2022/02/02 23:23:21;;;;;;;10.45;5.28;;;8.90;99.90;;;;;;4893970;29;20155;-78
2022/02/02 23:25:48;;;;;;;7.15;4.63;;;9.00;99.90;;;;;;4894452;29;20129;-78
2022/02/02 23:28:19;;;;;;;8.25;4.95;;;9.00;99.90;;;;;;4909541;29;20063;-78
2022/02/02 23:30:46;;;;;;;10.05;5.20;;;8.90;99.90;;;;;;4895486;29;20067;-77
2022/02/02 23:33:12;;;;;;;8.65;5.00;;;8.90;99.90;;;;;;4894310;29;20470;-78
2022/02/02 23:35:39;;;;;;;7.07;4.40;;;8.90;99.90;;;;;;4893020;29;20060;-78
2022/02/02 23:38:06;;;;;;;7.13;4.65;;;8.90;99.90;;;;;;4895339;29;20143;-78